NCAR-RAP Real-Time Weather Data

Output produced by METARs form (17 September 2019  17:07 UTC)
found at http://weather.rap.ucar.edu/surface/
 
KEKO 171656Z AUTO 24008KT 10SM CLR 12/01 A3015 RMK AO2 SLP185 T01220011
KEKO 171556Z AUTO 20006KT 10SM CLR 11/01 A3014 RMK AO2 SLP183 T01060011
KEKO 171456Z AUTO 26003KT 10SM CLR 07/01 A3013 RMK AO2 SLP182 T00720006 51016
KEKO 171356Z AUTO 00000KT 10SM CLR 04/M01 A3011 RMK AO2 SLP179 T00441006
KEKO 171256Z AUTO 25005KT 10SM CLR 03/M01 A3008 RMK AO2 SLP172 T00281011
KEKO 171156Z AUTO 00000KT 10SM CLR 04/M01 A3007 RMK AO2 SLP152 T00441006 10122 20039 53013
KEKO 171056Z AUTO 23006KT 10SM CLR 06/00 A3005 RMK AO2 SLP140 T00560000
KEKO 170956Z AUTO 22009KT 10SM CLR 07/01 A3004 RMK AO2 SLP134 T00720006
KEKO 170856Z AUTO 20007KT 10SM CLR 08/01 A3003 RMK AO2 SLP128 T00830006 51013
KEKO 170756Z AUTO 24004KT 10SM CLR 10/01 A3002 RMK AO2 SLP122 T01000011 402670056
KEKO 170656Z AUTO 26010KT 10SM BKN110 11/01 A3000 RMK AO2 SLP116 T01110006
KEKO 170556Z AUTO 24013KT 10SM OVC095 12/M01 A2998 RMK AO2 SLP108 60000 T01221006 10233 20117 53008
KEKO 170456Z AUTO 24008KT 10SM OVC090 12/01 A2996 RMK AO2 SLP110 T01170006
KEKO 170356Z AUTO 12005KT 10SM BKN070 OVC080 13/01 A2995 RMK AO2 RAB0257E10 SLP107 P0000 T01280006
KEKO 170256Z AUTO 30016G26KT 10SM OVC070 13/01 A2995 RMK AO2 PK WND 28030/0208 SLP117 T01330011 51063
KEKO 170056Z AUTO 28025G32KT 4SM HZ SCT019 BKN075 OVC090 16/01 A2984 RMK AO2 PK WND 22038/0003 WSHFT 0002 SLP075 T01560006
KEKO 170022Z AUTO 28024G36KT 8SM BKN110 19/00 A2978 RMK AO2 PK WND 22038/0003 WSHFT 0002 T01890000
KEKO 162356Z AUTO 22020G28KT 10SM CLR 23/M04 A2974 RMK AO2 PK WND 24031/2341 SLP027 T02331044 10267 20233 55015
KEKO 162256Z AUTO 21021G27KT 9SM CLR 26/M06 A2973 RMK AO2 PK WND 22032/2225 SLP022 T02611061